Terminal Aerodrome Forecast
Issued by NWS

Home | Current Version | Previous Version | Text Only | Print | Product List | Glossary On
Versions: 1 2 3 4 5 6 7 8 9 10 11 12 13 14 15 16 17 18 19 20 21 22 23 24 25 26 27
000
FTAK31 PAFA 201731
TAFABT
TAF
PABT 201731Z 2018/2118 VRB03KT P6SM -RA FEW035 BKN060 OVC100
     FM202100 VRB03KT 6SM -SHRA BR SCT015 OVC025
     FM210700 VRB03KT P6SM SCT015 BKN040
     FM211600 VRB03KT 3SM BR FEW004 SCT050=

USA.gov is the U.S. government's official web portal to all federal, state and local government web resources and services.